sensor_id;sensor_type;location;lat;lon;timestamp;P1;durP1;ratioP1;P2;durP2;ratioP2
51612;SDS011;37694;51.748;14.326;2024-01-10T00:02:03;27.48;;;19.70;;
51612;SDS011;37694;51.748;14.326;2024-01-10T00:04:29;30.20;;;20.13;;
51612;SDS011;37694;51.748;14.326;2024-01-10T00:06:55;28.60;;;20.05;;
51612;SDS011;37694;51.748;14.326;2024-01-10T00:09:20;30.60;;;21.02;;
51612;SDS011;37694;51.748;14.326;2024-01-10T00:11:46;30.77;;;22.15;;
51612;SDS011;37694;51.748;14.326;2024-01-10T00:14:12;32.75;;;19.83;;
51612;SDS011;37694;51.748;14.326;2024-01-10T00:16:37;27.25;;;21.05;;
51612;SDS011;37694;51.748;14.326;2024-01-10T00:19:03;30.30;;;21.05;;
51612;SDS011;37694;51.748;14.326;2024-01-10T00:21:29;28.80;;;19.80;;
51612;SDS011;37694;51.748;14.326;2024-01-10T00:23:55;30.20;;;21.25;;
51612;SDS011;37694;51.748;14.326;2024-01-10T00:26:20;30.38;;;21.33;;
51612;SDS011;37694;51.748;14.326;2024-01-10T00:28:46;30.63;;;21.33;;
51612;SDS011;37694;51.748;14.326;2024-01-10T00:31:12;30.55;;;22.00;;
51612;SDS011;37694;51.748;14.326;2024-01-10T00:33:39;29.55;;;21.27;;
51612;SDS011;37694;51.748;14.326;2024-01-10T00:36:05;29.15;;;21.08;;
51612;SDS011;37694;51.748;14.326;2024-01-10T00:38:31;30.77;;;21.58;;
51612;SDS011;37694;51.748;14.326;2024-01-10T00:40:57;27.75;;;21.20;;
51612;SDS011;37694;51.748;14.326;2024-01-10T00:43:22;27.42;;;19.73;;
51612;SDS011;37694;51.748;14.326;2024-01-10T00:45:48;28.23;;;20.98;;
51612;SDS011;37694;51.748;14.326;2024-01-10T00:48:14;29.50;;;20.90;;
51612;SDS011;37694;51.748;14.326;2024-01-10T00:50:40;27.70;;;20.83;;
51612;SDS011;37694;51.748;14.326;2024-01-10T00:53:05;32.58;;;20.45;;
51612;SDS011;37694;51.748;14.326;2024-01-10T00:55:31;29.80;;;20.48;;
51612;SDS011;37694;51.748;14.326;2024-01-10T00:57:57;28.60;;;20.30;;
51612;SDS011;37694;51.748;14.326;2024-01-10T01:00:22;30.65;;;21.48;;
51612;SDS011;37694;51.748;14.326;2024-01-10T01:02:48;29.90;;;21.10;;
51612;SDS011;37694;51.748;14.326;2024-01-10T01:05:14;27.60;;;21.70;;
51612;SDS011;37694;51.748;14.326;2024-01-10T01:07:39;29.15;;;20.73;;
51612;SDS011;37694;51.748;14.326;2024-01-10T01:10:05;28.58;;;21.30;;
51612;SDS011;37694;51.748;14.326;2024-01-10T01:12:33;31.30;;;21.63;;
51612;SDS011;37694;51.748;14.326;2024-01-10T01:14:59;33.33;;;20.80;;
51612;SDS011;37694;51.748;14.326;2024-01-10T01:17:25;27.40;;;20.98;;
51612;SDS011;37694;51.748;14.326;2024-01-10T01:19:50;29.67;;;21.33;;
51612;SDS011;37694;51.748;14.326;2024-01-10T01:22:16;30.23;;;20.25;;
51612;SDS011;37694;51.748;14.326;2024-01-10T01:24:41;27.40;;;19.67;;
51612;SDS011;37694;51.748;14.326;2024-01-10T01:27:07;27.30;;;20.13;;
51612;SDS011;37694;51.748;14.326;2024-01-10T01:29:33;31.55;;;22.02;;
51612;SDS011;37694;51.748;14.326;2024-01-10T01:31:58;30.77;;;20.17;;
51612;SDS011;37694;51.748;14.326;2024-01-10T01:34:24;28.50;;;21.15;;
51612;SDS011;37694;51.748;14.326;2024-01-10T01:36:49;28.08;;;20.23;;
51612;SDS011;37694;51.748;14.326;2024-01-10T01:39:16;29.15;;;20.45;;
51612;SDS011;37694;51.748;14.326;2024-01-10T01:41:43;30.02;;;20.60;;
51612;SDS011;37694;51.748;14.326;2024-01-10T01:44:08;28.25;;;19.73;;
51612;SDS011;37694;51.748;14.326;2024-01-10T01:46:34;29.45;;;21.52;;
51612;SDS011;37694;51.748;14.326;2024-01-10T01:49:00;29.23;;;20.05;;
51612;SDS011;37694;51.748;14.326;2024-01-10T01:51:27;31.45;;;21.40;;
51612;SDS011;37694;51.748;14.326;2024-01-10T01:53:54;29.90;;;19.55;;
51612;SDS011;37694;51.748;14.326;2024-01-10T01:56:20;32.05;;;20.90;;
51612;SDS011;37694;51.748;14.326;2024-01-10T01:58:46;28.33;;;20.85;;
51612;SDS011;37694;51.748;14.326;2024-01-10T02:01:15;29.63;;;20.83;;
51612;SDS011;37694;51.748;14.326;2024-01-10T02:03:41;29.83;;;20.95;;
51612;SDS011;37694;51.748;14.326;2024-01-10T02:06:07;28.00;;;21.00;;
51612;SDS011;37694;51.748;14.326;2024-01-10T02:08:33;29.98;;;21.00;;
51612;SDS011;37694;51.748;14.326;2024-01-10T02:11:00;29.40;;;20.45;;
51612;SDS011;37694;51.748;14.326;2024-01-10T02:13:27;28.30;;;19.73;;
51612;SDS011;37694;51.748;14.326;2024-01-10T02:15:53;30.48;;;20.70;;
51612;SDS011;37694;51.748;14.326;2024-01-10T02:18:19;32.78;;;21.77;;
51612;SDS011;37694;51.748;14.326;2024-01-10T02:20:45;34.17;;;21.15;;
51612;SDS011;37694;51.748;14.326;2024-01-10T02:23:11;31.45;;;20.95;;
51612;SDS011;37694;51.748;14.326;2024-01-10T02:25:37;26.63;;;19.40;;
51612;SDS011;37694;51.748;14.326;2024-01-10T02:28:04;30.75;;;21.05;;
51612;SDS011;37694;51.748;14.326;2024-01-10T02:30:30;27.95;;;19.80;;
51612;SDS011;37694;51.748;14.326;2024-01-10T02:32:55;31.02;;;20.85;;
51612;SDS011;37694;51.748;14.326;2024-01-10T02:35:21;30.17;;;20.45;;
51612;SDS011;37694;51.748;14.326;2024-01-10T02:37:47;31.27;;;20.80;;
51612;SDS011;37694;51.748;14.326;2024-01-10T02:40:16;31.10;;;20.63;;
51612;SDS011;37694;51.748;14.326;2024-01-10T02:42:41;29.95;;;20.67;;
51612;SDS011;37694;51.748;14.326;2024-01-10T02:45:07;29.77;;;19.35;;
51612;SDS011;37694;51.748;14.326;2024-01-10T02:47:33;29.00;;;20.83;;
51612;SDS011;37694;51.748;14.326;2024-01-10T02:49:59;30.15;;;20.27;;
51612;SDS011;37694;51.748;14.326;2024-01-10T02:52:25;30.60;;;20.73;;
51612;SDS011;37694;51.748;14.326;2024-01-10T02:54:51;27.13;;;19.35;;
51612;SDS011;37694;51.748;14.326;2024-01-10T02:57:16;29.17;;;20.38;;
51612;SDS011;37694;51.748;14.326;2024-01-10T02:59:42;28.63;;;19.35;;
51612;SDS011;37694;51.748;14.326;2024-01-10T03:02:07;36.55;;;21.60;;
51612;SDS011;37694;51.748;14.326;2024-01-10T03:04:33;30.55;;;21.25;;
51612;SDS011;37694;51.748;14.326;2024-01-10T03:06:59;31.60;;;20.50;;
51612;SDS011;37694;51.748;14.326;2024-01-10T03:09:25;31.45;;;19.05;;
51612;SDS011;37694;51.748;14.326;2024-01-10T03:11:50;27.73;;;19.48;;
51612;SDS011;37694;51.748;14.326;2024-01-10T03:14:16;32.22;;;19.90;;
51612;SDS011;37694;51.748;14.326;2024-01-10T03:16:41;27.58;;;20.33;;
51612;SDS011;37694;51.748;14.326;2024-01-10T03:19:07;27.88;;;19.38;;
51612;SDS011;37694;51.748;14.326;2024-01-10T03:21:33;30.38;;;21.38;;
51612;SDS011;37694;51.748;14.326;2024-01-10T03:23:59;31.67;;;20.40;;
51612;SDS011;37694;51.748;14.326;2024-01-10T03:26:26;29.63;;;20.80;;
51612;SDS011;37694;51.748;14.326;2024-01-10T03:28:53;28.63;;;19.33;;
51612;SDS011;37694;51.748;14.326;2024-01-10T03:31:19;29.67;;;20.33;;
51612;SDS011;37694;51.748;14.326;2024-01-10T03:33:45;30.95;;;19.63;;
51612;SDS011;37694;51.748;14.326;2024-01-10T03:36:13;31.98;;;21.92;;
51612;SDS011;37694;51.748;14.326;2024-01-10T03:38:40;27.33;;;19.33;;
51612;SDS011;37694;51.748;14.326;2024-01-10T03:41:06;31.27;;;20.52;;
51612;SDS011;37694;51.748;14.326;2024-01-10T03:43:31;30.05;;;20.13;;
51612;SDS011;37694;51.748;14.326;2024-01-10T03:45:57;30.48;;;20.17;;
51612;SDS011;37694;51.748;14.326;2024-01-10T03:48:23;29.30;;;20.50;;
51612;SDS011;37694;51.748;14.326;2024-01-10T03:50:49;33.15;;;20.55;;
51612;SDS011;37694;51.748;14.326;2024-01-10T03:53:15;31.48;;;21.15;;
51612;SDS011;37694;51.748;14.326;2024-01-10T03:55:41;32.05;;;21.08;;
51612;SDS011;37694;51.748;14.326;2024-01-10T03:58:06;34.83;;;22.40;;
51612;SDS011;37694;51.748;14.326;2024-01-10T04:00:32;26.45;;;19.42;;
51612;SDS011;37694;51.748;14.326;2024-01-10T04:02:58;30.08;;;19.73;;
51612;SDS011;37694;51.748;14.326;2024-01-10T04:05:24;27.60;;;19.73;;
51612;SDS011;37694;51.748;14.326;2024-01-10T04:07:50;34.97;;;20.73;;
51612;SDS011;37694;51.748;14.326;2024-01-10T04:10:17;26.67;;;19.13;;
51612;SDS011;37694;51.748;14.326;2024-01-10T04:12:43;31.33;;;19.83;;
51612;SDS011;37694;51.748;14.326;2024-01-10T04:15:09;32.08;;;20.60;;
51612;SDS011;37694;51.748;14.326;2024-01-10T04:17:35;32.13;;;19.45;;
51612;SDS011;37694;51.748;14.326;2024-01-10T04:20:01;29.30;;;20.25;;
51612;SDS011;37694;51.748;14.326;2024-01-10T04:22:28;26.02;;;18.38;;
51612;SDS011;37694;51.748;14.326;2024-01-10T04:24:55;28.85;;;19.60;;
51612;SDS011;37694;51.748;14.326;2024-01-10T04:27:24;31.17;;;19.40;;
51612;SDS011;37694;51.748;14.326;2024-01-10T04:29:51;28.15;;;18.88;;
51612;SDS011;37694;51.748;14.326;2024-01-10T04:32:16;27.25;;;19.05;;
51612;SDS011;37694;51.748;14.326;2024-01-10T04:34:42;26.90;;;18.85;;
51612;SDS011;37694;51.748;14.326;2024-01-10T04:37:08;29.88;;;19.55;;
51612;SDS011;37694;51.748;14.326;2024-01-10T04:39:34;28.45;;;18.70;;
51612;SDS011;37694;51.748;14.326;2024-01-10T04:42:00;23.83;;;17.48;;
51612;SDS011;37694;51.748;14.326;2024-01-10T04:44:26;27.33;;;19.08;;
51612;SDS011;37694;51.748;14.326;2024-01-10T04:46:51;28.77;;;19.52;;
51612;SDS011;37694;51.748;14.326;2024-01-10T04:49:17;28.83;;;19.17;;
51612;SDS011;37694;51.748;14.326;2024-01-10T04:51:43;28.60;;;18.67;;
51612;SDS011;37694;51.748;14.326;2024-01-10T04:54:09;28.98;;;18.95;;
51612;SDS011;37694;51.748;14.326;2024-01-10T04:56:35;27.50;;;18.40;;
51612;SDS011;37694;51.748;14.326;2024-01-10T04:59:01;27.63;;;18.50;;
51612;SDS011;37694;51.748;14.326;2024-01-10T05:01:27;27.38;;;18.92;;
51612;SDS011;37694;51.748;14.326;2024-01-10T05:03:53;26.17;;;18.35;;
51612;SDS011;37694;51.748;14.326;2024-01-10T05:06:19;25.60;;;18.60;;
51612;SDS011;37694;51.748;14.326;2024-01-10T05:08:45;27.63;;;19.63;;
51612;SDS011;37694;51.748;14.326;2024-01-10T05:11:10;26.20;;;18.88;;
51612;SDS011;37694;51.748;14.326;2024-01-10T05:13:37;27.52;;;18.70;;
51612;SDS011;37694;51.748;14.326;2024-01-10T05:16:04;27.75;;;18.25;;
51612;SDS011;37694;51.748;14.326;2024-01-10T05:18:30;26.10;;;18.67;;
51612;SDS011;37694;51.748;14.326;2024-01-10T05:20:55;31.60;;;18.67;;
51612;SDS011;37694;51.748;14.326;2024-01-10T05:23:22;25.52;;;17.88;;
51612;SDS011;37694;51.748;14.326;2024-01-10T05:25:48;26.23;;;18.33;;
51612;SDS011;37694;51.748;14.326;2024-01-10T05:28:14;24.38;;;17.60;;
51612;SDS011;37694;51.748;14.326;2024-01-10T05:30:40;26.88;;;18.58;;
51612;SDS011;37694;51.748;14.326;2024-01-10T05:33:07;28.42;;;19.75;;
51612;SDS011;37694;51.748;14.326;2024-01-10T05:35:33;27.25;;;18.13;;
51612;SDS011;37694;51.748;14.326;2024-01-10T05:38:00;25.83;;;18.25;;
51612;SDS011;37694;51.748;14.326;2024-01-10T05:40:27;24.33;;;17.33;;
51612;SDS011;37694;51.748;14.326;2024-01-10T05:42:55;22.27;;;16.23;;
51612;SDS011;37694;51.748;14.326;2024-01-10T05:45:21;25.15;;;17.33;;
51612;SDS011;37694;51.748;14.326;2024-01-10T05:47:46;24.45;;;17.85;;
51612;SDS011;37694;51.748;14.326;2024-01-10T05:50:13;27.35;;;17.75;;
51612;SDS011;37694;51.748;14.326;2024-01-10T05:52:39;26.13;;;18.65;;
51612;SDS011;37694;51.748;14.326;2024-01-10T05:55:05;26.15;;;18.90;;
51612;SDS011;37694;51.748;14.326;2024-01-10T05:57:34;23.92;;;16.52;;
51612;SDS011;37694;51.748;14.326;2024-01-10T06:00:00;23.67;;;17.48;;
51612;SDS011;37694;51.748;14.326;2024-01-10T06:02:26;26.33;;;16.55;;
51612;SDS011;37694;51.748;14.326;2024-01-10T06:04:52;23.42;;;16.88;;
51612;SDS011;37694;51.748;14.326;2024-01-10T06:07:18;24.48;;;17.08;;
51612;SDS011;37694;51.748;14.326;2024-01-10T06:09:43;29.23;;;16.40;;
51612;SDS011;37694;51.748;14.326;2024-01-10T06:12:10;30.38;;;18.00;;
51612;SDS011;37694;51.748;14.326;2024-01-10T06:14:35;31.75;;;17.08;;
51612;SDS011;37694;51.748;14.326;2024-01-10T06:17:01;34.60;;;16.65;;
51612;SDS011;37694;51.748;14.326;2024-01-10T06:19:29;27.25;;;16.42;;
51612;SDS011;37694;51.748;14.326;2024-01-10T06:21:56;29.48;;;16.60;;
51612;SDS011;37694;51.748;14.326;2024-01-10T06:24:22;32.65;;;17.25;;
51612;SDS011;37694;51.748;14.326;2024-01-10T06:26:48;33.60;;;16.02;;
51612;SDS011;37694;51.748;14.326;2024-01-10T06:29:14;30.45;;;15.27;;
51612;SDS011;37694;51.748;14.326;2024-01-10T06:31:40;31.88;;;17.17;;
51612;SDS011;37694;51.748;14.326;2024-01-10T06:34:06;35.72;;;16.65;;
51612;SDS011;37694;51.748;14.326;2024-01-10T06:36:33;39.55;;;15.77;;
51612;SDS011;37694;51.748;14.326;2024-01-10T06:38:58;44.85;;;16.73;;
51612;SDS011;37694;51.748;14.326;2024-01-10T06:41:24;33.53;;;16.13;;
51612;SDS011;37694;51.748;14.326;2024-01-10T06:43:52;33.78;;;17.38;;
51612;SDS011;37694;51.748;14.326;2024-01-10T06:46:19;45.50;;;17.70;;
51612;SDS011;37694;51.748;14.326;2024-01-10T06:48:45;39.38;;;17.65;;
51612;SDS011;37694;51.748;14.326;2024-01-10T06:51:14;44.42;;;18.52;;
51612;SDS011;37694;51.748;14.326;2024-01-10T06:53:40;39.05;;;17.52;;
51612;SDS011;37694;51.748;14.326;2024-01-10T06:56:06;41.67;;;17.52;;
51612;SDS011;37694;51.748;14.326;2024-01-10T06:58:32;41.67;;;18.35;;
51612;SDS011;37694;51.748;14.326;2024-01-10T07:00:58;38.78;;;18.65;;
51612;SDS011;37694;51.748;14.326;2024-01-10T07:03:30;42.88;;;19.05;;
51612;SDS011;37694;51.748;14.326;2024-01-10T07:05:56;39.03;;;17.85;;
51612;SDS011;37694;51.748;14.326;2024-01-10T07:08:24;32.58;;;17.13;;
51612;SDS011;37694;51.748;14.326;2024-01-10T07:10:51;37.53;;;17.73;;
51612;SDS011;37694;51.748;14.326;2024-01-10T07:13:17;41.85;;;19.08;;
51612;SDS011;37694;51.748;14.326;2024-01-10T07:15:42;29.85;;;17.50;;
51612;SDS011;37694;51.748;14.326;2024-01-10T07:18:08;32.90;;;17.77;;
51612;SDS011;37694;51.748;14.326;2024-01-10T07:20:34;29.45;;;15.95;;
51612;SDS011;37694;51.748;14.326;2024-01-10T07:22:59;31.00;;;17.20;;
51612;SDS011;37694;51.748;14.326;2024-01-10T07:25:25;41.20;;;17.75;;
51612;SDS011;37694;51.748;14.326;2024-01-10T07:27:51;34.88;;;18.05;;
51612;SDS011;37694;51.748;14.326;2024-01-10T07:30:17;35.50;;;18.48;;
51612;SDS011;37694;51.748;14.326;2024-01-10T07:32:43;33.72;;;18.08;;
51612;SDS011;37694;51.748;14.326;2024-01-10T07:35:10;29.02;;;17.23;;
51612;SDS011;37694;51.748;14.326;2024-01-10T07:37:36;36.00;;;17.00;;
51612;SDS011;37694;51.748;14.326;2024-01-10T07:40:03;35.13;;;17.83;;
51612;SDS011;37694;51.748;14.326;2024-01-10T07:42:33;29.58;;;18.13;;
51612;SDS011;37694;51.748;14.326;2024-01-10T07:44:59;28.20;;;17.40;;
51612;SDS011;37694;51.748;14.326;2024-01-10T07:47:29;28.17;;;17.80;;
51612;SDS011;37694;51.748;14.326;2024-01-10T07:50:02;36.45;;;17.52;;
51612;SDS011;37694;51.748;14.326;2024-01-10T07:52:29;27.33;;;16.85;;
51612;SDS011;37694;51.748;14.326;2024-01-10T07:54:55;29.42;;;18.10;;
51612;SDS011;37694;51.748;14.326;2024-01-10T07:57:22;24.27;;;16.50;;
51612;SDS011;37694;51.748;14.326;2024-01-10T07:59:47;27.85;;;17.85;;
51612;SDS011;37694;51.748;14.326;2024-01-10T08:02:13;29.20;;;17.20;;
51612;SDS011;37694;51.748;14.326;2024-01-10T08:04:39;28.83;;;17.20;;
51612;SDS011;37694;51.748;14.326;2024-01-10T08:07:04;28.00;;;16.55;;
51612;SDS011;37694;51.748;14.326;2024-01-10T08:09:30;37.97;;;18.50;;
51612;SDS011;37694;51.748;14.326;2024-01-10T08:11:55;32.83;;;18.38;;
51612;SDS011;37694;51.748;14.326;2024-01-10T08:14:22;29.20;;;17.38;;
51612;SDS011;37694;51.748;14.326;2024-01-10T08:16:48;29.00;;;18.02;;
51612;SDS011;37694;51.748;14.326;2024-01-10T08:19:13;29.50;;;18.27;;
51612;SDS011;37694;51.748;14.326;2024-01-10T08:21:39;26.05;;;18.15;;
51612;SDS011;37694;51.748;14.326;2024-01-10T08:24:05;30.10;;;18.05;;
51612;SDS011;37694;51.748;14.326;2024-01-10T08:26:31;31.08;;;18.88;;
51612;SDS011;37694;51.748;14.326;2024-01-10T08:28:57;26.58;;;18.63;;
51612;SDS011;37694;51.748;14.326;2024-01-10T08:31:22;28.40;;;17.60;;
51612;SDS011;37694;51.748;14.326;2024-01-10T08:33:48;27.05;;;17.48;;
51612;SDS011;37694;51.748;14.326;2024-01-10T08:36:14;29.77;;;19.00;;
51612;SDS011;37694;51.748;14.326;2024-01-10T08:38:40;27.80;;;18.33;;
51612;SDS011;37694;51.748;14.326;2024-01-10T08:41:09;26.98;;;18.45;;
51612;SDS011;37694;51.748;14.326;2024-01-10T08:43:36;27.40;;;18.65;;
51612;SDS011;37694;51.748;14.326;2024-01-10T08:46:02;30.63;;;18.02;;
51612;SDS011;37694;51.748;14.326;2024-01-10T08:48:29;25.00;;;17.60;;
51612;SDS011;37694;51.748;14.326;2024-01-10T08:50:54;29.67;;;19.42;;
51612;SDS011;37694;51.748;14.326;2024-01-10T08:53:21;27.95;;;18.10;;
51612;SDS011;37694;51.748;14.326;2024-01-10T08:55:47;32.65;;;18.90;;
51612;SDS011;37694;51.748;14.326;2024-01-10T08:58:13;29.65;;;17.98;;
51612;SDS011;37694;51.748;14.326;2024-01-10T09:00:39;30.17;;;19.67;;
51612;SDS011;37694;51.748;14.326;2024-01-10T09:03:04;28.85;;;18.05;;
51612;SDS011;37694;51.748;14.326;2024-01-10T09:05:30;27.27;;;18.23;;
51612;SDS011;37694;51.748;14.326;2024-01-10T09:07:56;25.23;;;17.58;;
51612;SDS011;37694;51.748;14.326;2024-01-10T09:10:22;25.92;;;19.08;;
51612;SDS011;37694;51.748;14.326;2024-01-10T09:12:47;26.80;;;18.40;;
51612;SDS011;37694;51.748;14.326;2024-01-10T09:15:13;23.17;;;17.13;;
51612;SDS011;37694;51.748;14.326;2024-01-10T09:17:40;27.27;;;18.23;;
51612;SDS011;37694;51.748;14.326;2024-01-10T09:20:07;31.50;;;18.67;;
51612;SDS011;37694;51.748;14.326;2024-01-10T09:22:33;25.17;;;17.17;;
51612;SDS011;37694;51.748;14.326;2024-01-10T09:24:59;27.88;;;18.00;;
51612;SDS011;37694;51.748;14.326;2024-01-10T09:27:31;27.33;;;18.20;;
51612;SDS011;37694;51.748;14.326;2024-01-10T09:29:57;28.58;;;18.23;;
51612;SDS011;37694;51.748;14.326;2024-01-10T09:32:22;26.70;;;18.13;;
51612;SDS011;37694;51.748;14.326;2024-01-10T09:34:48;24.15;;;17.38;;
51612;SDS011;37694;51.748;14.326;2024-01-10T09:37:14;26.45;;;16.77;;
51612;SDS011;37694;51.748;14.326;2024-01-10T09:39:40;25.95;;;18.50;;
51612;SDS011;37694;51.748;14.326;2024-01-10T09:42:05;28.52;;;18.48;;
51612;SDS011;37694;51.748;14.326;2024-01-10T09:44:31;27.67;;;18.50;;
51612;SDS011;37694;51.748;14.326;2024-01-10T09:46:58;26.13;;;18.73;;
51612;SDS011;37694;51.748;14.326;2024-01-10T09:49:25;27.27;;;17.73;;
51612;SDS011;37694;51.748;14.326;2024-01-10T09:51:57;26.27;;;18.88;;
51612;SDS011;37694;51.748;14.326;2024-01-10T09:54:27;26.23;;;17.95;;
51612;SDS011;37694;51.748;14.326;2024-01-10T09:56:55;28.70;;;18.92;;
51612;SDS011;37694;51.748;14.326;2024-01-10T09:59:22;28.45;;;19.80;;
51612;SDS011;37694;51.748;14.326;2024-01-10T10:01:48;27.45;;;18.65;;
51612;SDS011;37694;51.748;14.326;2024-01-10T10:04:16;24.52;;;18.27;;
51612;SDS011;37694;51.748;14.326;2024-01-10T10:06:44;27.45;;;19.30;;
51612;SDS011;37694;51.748;14.326;2024-01-10T10:09:10;26.23;;;18.55;;
51612;SDS011;37694;51.748;14.326;2024-01-10T10:11:37;26.23;;;18.13;;
51612;SDS011;37694;51.748;14.326;2024-01-10T10:14:16;25.35;;;18.05;;
51612;SDS011;37694;51.748;14.326;2024-01-10T10:16:43;26.70;;;18.83;;
51612;SDS011;37694;51.748;14.326;2024-01-10T10:19:09;27.42;;;18.25;;
51612;SDS011;37694;51.748;14.326;2024-01-10T10:21:36;25.20;;;18.60;;
51612;SDS011;37694;51.748;14.326;2024-01-10T10:24:02;29.75;;;19.52;;
51612;SDS011;37694;51.748;14.326;2024-01-10T10:26:29;25.63;;;18.70;;
51612;SDS011;37694;51.748;14.326;2024-01-10T10:28:58;26.95;;;19.13;;
51612;SDS011;37694;51.748;14.326;2024-01-10T10:31:24;28.50;;;18.85;;
51612;SDS011;37694;51.748;14.326;2024-01-10T10:33:50;25.10;;;19.05;;
51612;SDS011;37694;51.748;14.326;2024-01-10T10:36:17;26.75;;;19.45;;
51612;SDS011;37694;51.748;14.326;2024-01-10T10:38:43;25.33;;;18.15;;
51612;SDS011;37694;51.748;14.326;2024-01-10T10:41:09;28.55;;;20.38;;
51612;SDS011;37694;51.748;14.326;2024-01-10T10:43:37;27.83;;;19.52;;
51612;SDS011;37694;51.748;14.326;2024-01-10T10:46:04;28.67;;;18.95;;
51612;SDS011;37694;51.748;14.326;2024-01-10T10:48:41;26.40;;;19.50;;
51612;SDS011;37694;51.748;14.326;2024-01-10T10:51:11;25.58;;;18.60;;
51612;SDS011;37694;51.748;14.326;2024-01-10T10:53:40;27.57;;;19.37;;
51612;SDS011;37694;51.748;14.326;2024-01-10T10:56:10;24.30;;;18.48;;
51612;SDS011;37694;51.748;14.326;2024-01-10T10:58:41;28.13;;;19.90;;
51612;SDS011;37694;51.748;14.326;2024-01-10T11:01:10;27.20;;;18.55;;
51612;SDS011;37694;51.748;14.326;2024-01-10T11:03:37;27.30;;;18.80;;
51612;SDS011;37694;51.748;14.326;2024-01-10T11:06:05;29.02;;;19.77;;
51612;SDS011;37694;51.748;14.326;2024-01-10T11:08:45;26.08;;;19.05;;
51612;SDS011;37694;51.748;14.326;2024-01-10T11:14:16;25.40;;;17.95;;
51612;SDS011;37694;51.748;14.326;2024-01-10T11:25:26;28.13;;;18.08;;
51612;SDS011;37694;51.748;14.326;2024-01-10T11:27:55;26.10;;;18.50;;
51612;SDS011;37694;51.748;14.326;2024-01-10T11:30:32;29.20;;;20.20;;
51612;SDS011;37694;51.748;14.326;2024-01-10T11:33:21;26.45;;;18.65;;
51612;SDS011;37694;51.748;14.326;2024-01-10T11:36:05;26.75;;;19.80;;
51612;SDS011;37694;51.748;14.326;2024-01-10T11:38:47;27.40;;;20.05;;
51612;SDS011;37694;51.748;14.326;2024-01-10T11:46:40;27.92;;;20.42;;
51612;SDS011;37694;51.748;14.326;2024-01-10T11:49:10;25.27;;;18.38;;
51612;SDS011;37694;51.748;14.326;2024-01-10T11:51:38;29.75;;;19.17;;
51612;SDS011;37694;51.748;14.326;2024-01-10T11:54:06;25.20;;;18.83;;
51612;SDS011;37694;51.748;14.326;2024-01-10T11:56:50;27.85;;;19.00;;
51612;SDS011;37694;51.748;14.326;2024-01-10T11:59:16;25.40;;;19.02;;
51612;SDS011;37694;51.748;14.326;2024-01-10T12:01:43;25.05;;;18.05;;
51612;SDS011;37694;51.748;14.326;2024-01-10T12:04:09;29.80;;;19.75;;
51612;SDS011;37694;51.748;14.326;2024-01-10T12:06:35;31.67;;;19.23;;
51612;SDS011;37694;51.748;14.326;2024-01-10T12:09:02;26.45;;;18.15;;
51612;SDS011;37694;51.748;14.326;2024-01-10T12:11:34;27.80;;;19.13;;
51612;SDS011;37694;51.748;14.326;2024-01-10T12:14:01;28.20;;;19.15;;
51612;SDS011;37694;51.748;14.326;2024-01-10T12:16:27;25.13;;;18.75;;
51612;SDS011;37694;51.748;14.326;2024-01-10T12:18:54;28.63;;;19.98;;
51612;SDS011;37694;51.748;14.326;2024-01-10T12:21:20;25.25;;;17.80;;
51612;SDS011;37694;51.748;14.326;2024-01-10T12:23:46;27.13;;;18.83;;
51612;SDS011;37694;51.748;14.326;2024-01-10T12:26:13;24.95;;;17.30;;
51612;SDS011;37694;51.748;14.326;2024-01-10T12:28:39;24.13;;;18.60;;
51612;SDS011;37694;51.748;14.326;2024-01-10T12:31:07;30.15;;;19.60;;
51612;SDS011;37694;51.748;14.326;2024-01-10T12:33:33;25.67;;;18.55;;
51612;SDS011;37694;51.748;14.326;2024-01-10T12:36:03;31.92;;;20.75;;
51612;SDS011;37694;51.748;14.326;2024-01-10T12:38:30;24.20;;;18.08;;
51612;SDS011;37694;51.748;14.326;2024-01-10T12:40:57;22.67;;;18.10;;
51612;SDS011;37694;51.748;14.326;2024-01-10T12:43:23;23.67;;;17.48;;
51612;SDS011;37694;51.748;14.326;2024-01-10T12:46:03;24.27;;;17.90;;
51612;SDS011;37694;51.748;14.326;2024-01-10T12:48:32;27.05;;;18.80;;
51612;SDS011;37694;51.748;14.326;2024-01-10T12:51:01;25.58;;;19.02;;
51612;SDS011;37694;51.748;14.326;2024-01-10T12:53:31;26.70;;;19.48;;
51612;SDS011;37694;51.748;14.326;2024-01-10T12:56:01;27.55;;;19.20;;
51612;SDS011;37694;51.748;14.326;2024-01-10T12:58:31;26.50;;;19.35;;
51612;SDS011;37694;51.748;14.326;2024-01-10T13:00:57;27.75;;;18.40;;
51612;SDS011;37694;51.748;14.326;2024-01-10T13:03:23;28.38;;;19.33;;
51612;SDS011;37694;51.748;14.326;2024-01-10T13:05:52;26.52;;;18.20;;
51612;SDS011;37694;51.748;14.326;2024-01-10T13:08:18;25.92;;;19.05;;
51612;SDS011;37694;51.748;14.326;2024-01-10T13:10:44;22.67;;;17.35;;
51612;SDS011;37694;51.748;14.326;2024-01-10T13:13:11;24.92;;;18.52;;
51612;SDS011;37694;51.748;14.326;2024-01-10T13:15:37;28.45;;;18.88;;
51612;SDS011;37694;51.748;14.326;2024-01-10T13:18:03;29.23;;;18.48;;
51612;SDS011;37694;51.748;14.326;2024-01-10T13:20:29;28.48;;;19.50;;
51612;SDS011;37694;51.748;14.326;2024-01-10T13:22:55;26.70;;;17.92;;
51612;SDS011;37694;51.748;14.326;2024-01-10T13:25:21;24.95;;;18.02;;
51612;SDS011;37694;51.748;14.326;2024-01-10T13:27:50;27.02;;;18.70;;
51612;SDS011;37694;51.748;14.326;2024-01-10T13:30:16;25.88;;;17.98;;
51612;SDS011;37694;51.748;14.326;2024-01-10T13:32:42;28.63;;;18.90;;
51612;SDS011;37694;51.748;14.326;2024-01-10T13:35:14;26.35;;;17.38;;
51612;SDS011;37694;51.748;14.326;2024-01-10T13:37:46;27.52;;;19.10;;
51612;SDS011;37694;51.748;14.326;2024-01-10T13:40:12;26.25;;;18.60;;
51612;SDS011;37694;51.748;14.326;2024-01-10T13:42:38;24.92;;;18.15;;
51612;SDS011;37694;51.748;14.326;2024-01-10T13:45:08;25.40;;;18.55;;
51612;SDS011;37694;51.748;14.326;2024-01-10T13:47:37;27.50;;;18.83;;
51612;SDS011;37694;51.748;14.326;2024-01-10T13:50:07;26.95;;;19.05;;
51612;SDS011;37694;51.748;14.326;2024-01-10T13:52:33;27.20;;;18.60;;
51612;SDS011;37694;51.748;14.326;2024-01-10T13:55:00;28.45;;;19.33;;
51612;SDS011;37694;51.748;14.326;2024-01-10T13:57:26;24.80;;;16.92;;
51612;SDS011;37694;51.748;14.326;2024-01-10T13:59:52;23.50;;;17.25;;
51612;SDS011;37694;51.748;14.326;2024-01-10T14:02:21;25.52;;;18.50;;
51612;SDS011;37694;51.748;14.326;2024-01-10T14:04:47;24.33;;;17.67;;
51612;SDS011;37694;51.748;14.326;2024-01-10T14:07:14;26.02;;;18.33;;
51612;SDS011;37694;51.748;14.326;2024-01-10T14:09:39;23.98;;;17.33;;
51612;SDS011;37694;51.748;14.326;2024-01-10T14:12:05;27.58;;;18.50;;
51612;SDS011;37694;51.748;14.326;2024-01-10T14:14:31;25.75;;;18.38;;
51612;SDS011;37694;51.748;14.326;2024-01-10T14:16:59;25.17;;;18.70;;
51612;SDS011;37694;51.748;14.326;2024-01-10T14:19:25;26.02;;;18.10;;
51612;SDS011;37694;51.748;14.326;2024-01-10T14:21:51;29.30;;;19.30;;
51612;SDS011;37694;51.748;14.326;2024-01-10T14:24:17;28.75;;;18.08;;